sensor_id;sensor_type;location;lat;lon;timestamp;P1;durP1;ratioP1;P2;durP2;ratioP2
52386;SDS011;38317;53.084;6.960;2022-10-22T00:00:10;6.97;;;3.20;;
52386;SDS011;38317;53.084;6.960;2022-10-22T00:02:37;7.30;;;3.45;;
52386;SDS011;38317;53.084;6.960;2022-10-22T00:05:03;6.70;;;3.22;;
52386;SDS011;38317;53.084;6.960;2022-10-22T00:07:30;7.35;;;3.75;;
52386;SDS011;38317;53.084;6.960;2022-10-22T00:09:56;6.55;;;3.70;;
52386;SDS011;38317;53.084;6.960;2022-10-22T00:12:22;8.05;;;3.55;;
52386;SDS011;38317;53.084;6.960;2022-10-22T00:14:48;5.38;;;3.40;;
52386;SDS011;38317;53.084;6.960;2022-10-22T00:17:15;7.38;;;3.33;;
52386;SDS011;38317;53.084;6.960;2022-10-22T00:19:40;5.95;;;3.60;;
52386;SDS011;38317;53.084;6.960;2022-10-22T00:22:06;7.80;;;3.60;;
52386;SDS011;38317;53.084;6.960;2022-10-22T00:24:34;5.55;;;3.15;;
52386;SDS011;38317;53.084;6.960;2022-10-22T00:27:01;8.15;;;4.15;;
52386;SDS011;38317;53.084;6.960;2022-10-22T00:29:27;7.65;;;3.78;;
52386;SDS011;38317;53.084;6.960;2022-10-22T00:31:53;6.05;;;2.83;;
52386;SDS011;38317;53.084;6.960;2022-10-22T00:34:19;5.40;;;3.25;;
52386;SDS011;38317;53.084;6.960;2022-10-22T00:36:46;4.95;;;3.00;;
52386;SDS011;38317;53.084;6.960;2022-10-22T00:39:13;6.00;;;3.38;;
52386;SDS011;38317;53.084;6.960;2022-10-22T00:41:44;7.53;;;3.65;;
52386;SDS011;38317;53.084;6.960;2022-10-22T00:47:15;6.30;;;3.00;;
52386;SDS011;38317;53.084;6.960;2022-10-22T00:49:43;6.20;;;3.58;;
52386;SDS011;38317;53.084;6.960;2022-10-22T00:52:10;5.93;;;3.42;;
52386;SDS011;38317;53.084;6.960;2022-10-22T00:54:37;6.57;;;3.40;;
52386;SDS011;38317;53.084;6.960;2022-10-22T00:57:04;5.60;;;3.10;;
52386;SDS011;38317;53.084;6.960;2022-10-22T00:59:29;6.75;;;3.20;;
52386;SDS011;38317;53.084;6.960;2022-10-22T01:01:56;6.20;;;3.30;;
52386;SDS011;38317;53.084;6.960;2022-10-22T01:04:22;7.05;;;3.22;;
52386;SDS011;38317;53.084;6.960;2022-10-22T01:06:48;5.18;;;3.15;;
52386;SDS011;38317;53.084;6.960;2022-10-22T01:17:22;7.95;;;3.40;;
52386;SDS011;38317;53.084;6.960;2022-10-22T01:23:06;7.10;;;3.30;;
52386;SDS011;38317;53.084;6.960;2022-10-22T01:30:48;7.15;;;3.20;;
52386;SDS011;38317;53.084;6.960;2022-10-22T01:33:17;6.10;;;3.03;;
52386;SDS011;38317;53.084;6.960;2022-10-22T01:35:46;6.30;;;3.38;;
52386;SDS011;38317;53.084;6.960;2022-10-22T01:38:14;7.82;;;3.80;;
52386;SDS011;38317;53.084;6.960;2022-10-22T01:40:44;7.32;;;3.40;;
52386;SDS011;38317;53.084;6.960;2022-10-22T01:43:11;6.88;;;3.70;;
52386;SDS011;38317;53.084;6.960;2022-10-22T01:45:42;6.05;;;3.30;;
52386;SDS011;38317;53.084;6.960;2022-10-22T01:53:52;7.63;;;3.53;;
52386;SDS011;38317;53.084;6.960;2022-10-22T02:04:59;5.43;;;3.08;;
52386;SDS011;38317;53.084;6.960;2022-10-22T02:07:35;6.72;;;3.08;;
52386;SDS011;38317;53.084;6.960;2022-10-22T02:10:05;5.53;;;3.10;;
52386;SDS011;38317;53.084;6.960;2022-10-22T02:12:33;5.75;;;3.22;;
52386;SDS011;38317;53.084;6.960;2022-10-22T02:14:59;6.38;;;3.15;;
52386;SDS011;38317;53.084;6.960;2022-10-22T02:17:28;4.90;;;3.13;;
52386;SDS011;38317;53.084;6.960;2022-10-22T02:20:00;5.28;;;3.10;;
52386;SDS011;38317;53.084;6.960;2022-10-22T02:22:31;5.50;;;3.03;;
52386;SDS011;38317;53.084;6.960;2022-10-22T02:24:57;8.05;;;3.45;;
52386;SDS011;38317;53.084;6.960;2022-10-22T02:29:57;5.75;;;3.13;;
52386;SDS011;38317;53.084;6.960;2022-10-22T02:35:18;8.80;;;3.40;;
52386;SDS011;38317;53.084;6.960;2022-10-22T02:37:46;6.78;;;3.28;;
52386;SDS011;38317;53.084;6.960;2022-10-22T02:40:13;7.43;;;3.88;;
52386;SDS011;38317;53.084;6.960;2022-10-22T02:42:40;5.93;;;3.42;;
52386;SDS011;38317;53.084;6.960;2022-10-22T02:45:07;6.68;;;3.38;;
52386;SDS011;38317;53.084;6.960;2022-10-22T02:47:33;5.65;;;3.40;;
52386;SDS011;38317;53.084;6.960;2022-10-22T02:49:59;7.30;;;3.58;;
52386;SDS011;38317;53.084;6.960;2022-10-22T02:52:24;5.32;;;3.10;;
52386;SDS011;38317;53.084;6.960;2022-10-22T02:54:50;6.22;;;3.42;;
52386;SDS011;38317;53.084;6.960;2022-10-22T02:57:16;6.05;;;3.35;;
52386;SDS011;38317;53.084;6.960;2022-10-22T02:59:41;5.35;;;2.95;;
52386;SDS011;38317;53.084;6.960;2022-10-22T03:02:07;6.05;;;3.35;;
52386;SDS011;38317;53.084;6.960;2022-10-22T03:04:33;5.93;;;3.30;;
52386;SDS011;38317;53.084;6.960;2022-10-22T03:06:59;6.50;;;3.63;;
52386;SDS011;38317;53.084;6.960;2022-10-22T03:09:25;5.57;;;3.30;;
52386;SDS011;38317;53.084;6.960;2022-10-22T03:11:50;6.13;;;2.92;;
52386;SDS011;38317;53.084;6.960;2022-10-22T03:14:16;6.40;;;3.30;;
52386;SDS011;38317;53.084;6.960;2022-10-22T03:16:42;7.28;;;3.65;;
52386;SDS011;38317;53.084;6.960;2022-10-22T03:19:08;6.82;;;3.90;;
52386;SDS011;38317;53.084;6.960;2022-10-22T03:24:15;8.43;;;3.30;;
52386;SDS011;38317;53.084;6.960;2022-10-22T03:26:45;6.28;;;3.22;;
52386;SDS011;38317;53.084;6.960;2022-10-22T03:29:13;7.57;;;3.05;;
52386;SDS011;38317;53.084;6.960;2022-10-22T03:31:40;6.55;;;3.08;;
52386;SDS011;38317;53.084;6.960;2022-10-22T03:34:07;6.93;;;3.20;;
52386;SDS011;38317;53.084;6.960;2022-10-22T03:36:36;6.30;;;3.20;;
52386;SDS011;38317;53.084;6.960;2022-10-22T03:39:02;5.65;;;3.20;;
52386;SDS011;38317;53.084;6.960;2022-10-22T03:41:29;5.63;;;3.25;;
52386;SDS011;38317;53.084;6.960;2022-10-22T03:43:55;5.03;;;2.92;;
52386;SDS011;38317;53.084;6.960;2022-10-22T03:46:21;6.25;;;3.30;;
52386;SDS011;38317;53.084;6.960;2022-10-22T03:48:47;6.88;;;3.60;;
52386;SDS011;38317;53.084;6.960;2022-10-22T03:51:13;4.88;;;3.20;;
52386;SDS011;38317;53.084;6.960;2022-10-22T03:53:39;6.57;;;3.33;;
52386;SDS011;38317;53.084;6.960;2022-10-22T03:56:08;6.35;;;3.70;;
52386;SDS011;38317;53.084;6.960;2022-10-22T03:58:34;6.35;;;3.47;;
52386;SDS011;38317;53.084;6.960;2022-10-22T04:01:05;7.40;;;3.83;;
52386;SDS011;38317;53.084;6.960;2022-10-22T04:03:32;5.82;;;3.33;;
52386;SDS011;38317;53.084;6.960;2022-10-22T04:06:05;5.30;;;3.13;;
52386;SDS011;38317;53.084;6.960;2022-10-22T04:08:32;7.80;;;3.67;;
52386;SDS011;38317;53.084;6.960;2022-10-22T04:10:58;10.90;;;4.28;;
52386;SDS011;38317;53.084;6.960;2022-10-22T04:13:24;9.57;;;3.88;;
52386;SDS011;38317;53.084;6.960;2022-10-22T04:15:50;7.78;;;3.75;;
52386;SDS011;38317;53.084;6.960;2022-10-22T04:18:20;6.90;;;4.15;;
52386;SDS011;38317;53.084;6.960;2022-10-22T04:20:47;6.45;;;3.90;;
52386;SDS011;38317;53.084;6.960;2022-10-22T04:23:13;6.72;;;3.67;;
52386;SDS011;38317;53.084;6.960;2022-10-22T04:25:39;7.82;;;3.95;;
52386;SDS011;38317;53.084;6.960;2022-10-22T04:28:05;6.55;;;4.13;;
52386;SDS011;38317;53.084;6.960;2022-10-22T04:30:32;5.53;;;3.28;;
52386;SDS011;38317;53.084;6.960;2022-10-22T04:32:58;7.05;;;3.92;;
52386;SDS011;38317;53.084;6.960;2022-10-22T04:35:24;8.32;;;4.30;;
52386;SDS011;38317;53.084;6.960;2022-10-22T04:37:50;10.20;;;3.97;;
52386;SDS011;38317;53.084;6.960;2022-10-22T04:40:15;7.60;;;3.83;;
52386;SDS011;38317;53.084;6.960;2022-10-22T04:42:41;6.45;;;3.75;;
52386;SDS011;38317;53.084;6.960;2022-10-22T04:45:07;7.88;;;4.55;;
52386;SDS011;38317;53.084;6.960;2022-10-22T04:47:33;6.82;;;3.58;;
52386;SDS011;38317;53.084;6.960;2022-10-22T04:49:59;8.38;;;4.15;;
52386;SDS011;38317;53.084;6.960;2022-10-22T04:52:25;7.57;;;4.50;;
52386;SDS011;38317;53.084;6.960;2022-10-22T04:54:50;7.68;;;4.05;;
52386;SDS011;38317;53.084;6.960;2022-10-22T04:57:16;7.88;;;4.00;;
52386;SDS011;38317;53.084;6.960;2022-10-22T04:59:46;9.00;;;4.05;;
52386;SDS011;38317;53.084;6.960;2022-10-22T05:02:35;6.80;;;3.75;;
52386;SDS011;38317;53.084;6.960;2022-10-22T05:05:01;8.50;;;4.03;;
52386;SDS011;38317;53.084;6.960;2022-10-22T05:07:27;8.25;;;4.07;;
52386;SDS011;38317;53.084;6.960;2022-10-22T05:09:53;6.95;;;3.80;;
52386;SDS011;38317;53.084;6.960;2022-10-22T05:12:19;8.48;;;3.70;;
52386;SDS011;38317;53.084;6.960;2022-10-22T05:14:44;7.32;;;4.25;;
52386;SDS011;38317;53.084;6.960;2022-10-22T05:17:10;7.05;;;3.97;;
52386;SDS011;38317;53.084;6.960;2022-10-22T05:19:36;8.40;;;4.15;;
52386;SDS011;38317;53.084;6.960;2022-10-22T05:22:02;8.30;;;3.95;;
52386;SDS011;38317;53.084;6.960;2022-10-22T05:24:29;7.78;;;3.88;;
52386;SDS011;38317;53.084;6.960;2022-10-22T05:26:57;11.23;;;4.40;;
52386;SDS011;38317;53.084;6.960;2022-10-22T05:29:24;7.88;;;4.00;;
52386;SDS011;38317;53.084;6.960;2022-10-22T05:31:50;7.40;;;3.97;;
52386;SDS011;38317;53.084;6.960;2022-10-22T05:34:17;7.93;;;4.03;;
52386;SDS011;38317;53.084;6.960;2022-10-22T05:36:43;7.93;;;4.18;;
52386;SDS011;38317;53.084;6.960;2022-10-22T05:39:09;6.50;;;4.10;;
52386;SDS011;38317;53.084;6.960;2022-10-22T05:41:36;6.28;;;3.90;;
52386;SDS011;38317;53.084;6.960;2022-10-22T05:44:02;6.75;;;3.92;;
52386;SDS011;38317;53.084;6.960;2022-10-22T05:46:29;7.97;;;4.00;;
52386;SDS011;38317;53.084;6.960;2022-10-22T05:48:58;6.72;;;4.07;;
52386;SDS011;38317;53.084;6.960;2022-10-22T05:51:27;8.30;;;4.18;;
52386;SDS011;38317;53.084;6.960;2022-10-22T05:53:55;8.43;;;4.85;;
52386;SDS011;38317;53.084;6.960;2022-10-22T05:56:23;9.02;;;4.38;;
52386;SDS011;38317;53.084;6.960;2022-10-22T05:58:50;7.68;;;4.20;;
52386;SDS011;38317;53.084;6.960;2022-10-22T06:01:17;6.95;;;4.53;;
52386;SDS011;38317;53.084;6.960;2022-10-22T06:03:45;8.15;;;4.22;;
52386;SDS011;38317;53.084;6.960;2022-10-22T06:06:31;10.23;;;4.65;;
52386;SDS011;38317;53.084;6.960;2022-10-22T06:09:22;7.60;;;4.05;;
52386;SDS011;38317;53.084;6.960;2022-10-22T06:11:51;9.63;;;4.63;;
52386;SDS011;38317;53.084;6.960;2022-10-22T06:14:17;7.82;;;4.13;;
52386;SDS011;38317;53.084;6.960;2022-10-22T06:16:44;7.13;;;3.97;;
52386;SDS011;38317;53.084;6.960;2022-10-22T06:19:10;13.70;;;4.80;;
52386;SDS011;38317;53.084;6.960;2022-10-22T06:21:37;13.82;;;5.57;;
52386;SDS011;38317;53.084;6.960;2022-10-22T06:24:03;8.38;;;5.07;;
52386;SDS011;38317;53.084;6.960;2022-10-22T06:26:29;8.77;;;4.55;;
52386;SDS011;38317;53.084;6.960;2022-10-22T06:28:56;8.60;;;4.40;;
52386;SDS011;38317;53.084;6.960;2022-10-22T06:31:23;8.55;;;4.68;;
52386;SDS011;38317;53.084;6.960;2022-10-22T06:33:50;7.97;;;4.82;;
52386;SDS011;38317;53.084;6.960;2022-10-22T06:36:17;8.93;;;4.50;;
52386;SDS011;38317;53.084;6.960;2022-10-22T06:38:46;11.38;;;4.32;;
52386;SDS011;38317;53.084;6.960;2022-10-22T06:41:15;9.55;;;4.75;;
52386;SDS011;38317;53.084;6.960;2022-10-22T06:43:41;8.32;;;4.57;;
52386;SDS011;38317;53.084;6.960;2022-10-22T06:46:09;7.25;;;4.15;;
52386;SDS011;38317;53.084;6.960;2022-10-22T06:48:36;11.40;;;5.00;;
52386;SDS011;38317;53.084;6.960;2022-10-22T06:51:05;9.15;;;4.70;;
52386;SDS011;38317;53.084;6.960;2022-10-22T06:53:33;9.07;;;5.35;;
52386;SDS011;38317;53.084;6.960;2022-10-22T06:56:06;8.68;;;4.70;;
52386;SDS011;38317;53.084;6.960;2022-10-22T06:58:34;8.02;;;4.55;;
52386;SDS011;38317;53.084;6.960;2022-10-22T07:01:07;8.00;;;4.50;;
52386;SDS011;38317;53.084;6.960;2022-10-22T07:03:35;11.13;;;5.20;;
52386;SDS011;38317;53.084;6.960;2022-10-22T07:06:02;10.35;;;4.80;;
52386;SDS011;38317;53.084;6.960;2022-10-22T07:08:29;11.38;;;4.95;;
52386;SDS011;38317;53.084;6.960;2022-10-22T07:10:55;9.13;;;5.15;;
52386;SDS011;38317;53.084;6.960;2022-10-22T07:13:29;7.75;;;4.45;;
52386;SDS011;38317;53.084;6.960;2022-10-22T07:15:54;8.13;;;4.40;;
52386;SDS011;38317;53.084;6.960;2022-10-22T07:18:20;10.07;;;4.60;;
52386;SDS011;38317;53.084;6.960;2022-10-22T07:20:47;9.18;;;4.78;;
52386;SDS011;38317;53.084;6.960;2022-10-22T07:23:13;9.95;;;4.93;;
52386;SDS011;38317;53.084;6.960;2022-10-22T07:25:40;8.52;;;4.95;;
52386;SDS011;38317;53.084;6.960;2022-10-22T07:28:05;11.02;;;5.47;;
52386;SDS011;38317;53.084;6.960;2022-10-22T07:30:31;11.75;;;5.50;;
52386;SDS011;38317;53.084;6.960;2022-10-22T07:32:58;9.73;;;4.70;;
52386;SDS011;38317;53.084;6.960;2022-10-22T07:35:24;8.93;;;4.90;;
52386;SDS011;38317;53.084;6.960;2022-10-22T07:37:50;12.45;;;5.40;;
52386;SDS011;38317;53.084;6.960;2022-10-22T07:40:16;10.57;;;4.72;;
52386;SDS011;38317;53.084;6.960;2022-10-22T07:42:41;10.93;;;4.90;;
52386;SDS011;38317;53.084;6.960;2022-10-22T07:45:07;8.75;;;4.57;;
52386;SDS011;38317;53.084;6.960;2022-10-22T07:47:33;10.38;;;4.55;;
52386;SDS011;38317;53.084;6.960;2022-10-22T07:49:59;11.02;;;5.05;;
52386;SDS011;38317;53.084;6.960;2022-10-22T07:52:24;12.68;;;5.30;;
52386;SDS011;38317;53.084;6.960;2022-10-22T07:54:51;10.73;;;4.80;;
52386;SDS011;38317;53.084;6.960;2022-10-22T07:57:16;10.90;;;5.50;;
52386;SDS011;38317;53.084;6.960;2022-10-22T07:59:42;10.23;;;5.00;;
52386;SDS011;38317;53.084;6.960;2022-10-22T08:02:08;13.65;;;4.95;;
52386;SDS011;38317;53.084;6.960;2022-10-22T08:04:35;9.40;;;4.38;;
52386;SDS011;38317;53.084;6.960;2022-10-22T08:07:02;10.93;;;5.30;;
52386;SDS011;38317;53.084;6.960;2022-10-22T08:09:28;13.05;;;5.38;;
52386;SDS011;38317;53.084;6.960;2022-10-22T08:11:54;11.55;;;5.20;;
52386;SDS011;38317;53.084;6.960;2022-10-22T08:14:19;10.50;;;4.47;;
52386;SDS011;38317;53.084;6.960;2022-10-22T08:16:45;10.93;;;4.15;;
52386;SDS011;38317;53.084;6.960;2022-10-22T08:19:11;12.25;;;4.80;;
52386;SDS011;38317;53.084;6.960;2022-10-22T08:21:38;7.70;;;4.05;;
52386;SDS011;38317;53.084;6.960;2022-10-22T08:24:04;8.35;;;4.13;;
52386;SDS011;38317;53.084;6.960;2022-10-22T08:26:30;8.93;;;3.85;;
52386;SDS011;38317;53.084;6.960;2022-10-22T08:28:56;8.57;;;4.15;;
52386;SDS011;38317;53.084;6.960;2022-10-22T08:31:22;8.20;;;3.83;;
52386;SDS011;38317;53.084;6.960;2022-10-22T08:33:48;8.77;;;3.55;;
52386;SDS011;38317;53.084;6.960;2022-10-22T08:36:14;9.13;;;4.03;;
52386;SDS011;38317;53.084;6.960;2022-10-22T08:38:40;7.75;;;3.70;;
52386;SDS011;38317;53.084;6.960;2022-10-22T08:41:11;6.75;;;3.80;;
52386;SDS011;38317;53.084;6.960;2022-10-22T08:46:45;8.80;;;3.45;;
52386;SDS011;38317;53.084;6.960;2022-10-22T08:49:45;10.90;;;3.80;;
52386;SDS011;38317;53.084;6.960;2022-10-22T08:52:12;9.20;;;3.63;;
52386;SDS011;38317;53.084;6.960;2022-10-22T08:54:56;12.45;;;3.40;;
52386;SDS011;38317;53.084;6.960;2022-10-22T09:00:21;7.90;;;3.60;;
52386;SDS011;38317;53.084;6.960;2022-10-22T09:08:14;8.90;;;3.72;;
52386;SDS011;38317;53.084;6.960;2022-10-22T09:10:45;10.00;;;3.35;;
52386;SDS011;38317;53.084;6.960;2022-10-22T09:13:16;8.55;;;3.25;;
52386;SDS011;38317;53.084;6.960;2022-10-22T09:15:52;9.43;;;3.47;;
52386;SDS011;38317;53.084;6.960;2022-10-22T09:26:55;11.13;;;3.67;;
52386;SDS011;38317;53.084;6.960;2022-10-22T09:29:22;8.30;;;2.78;;
52386;SDS011;38317;53.084;6.960;2022-10-22T09:31:55;25.15;;;5.15;;
52386;SDS011;38317;53.084;6.960;2022-10-22T09:34:21;10.45;;;3.55;;
52386;SDS011;38317;53.084;6.960;2022-10-22T09:36:48;17.50;;;4.68;;
52386;SDS011;38317;53.084;6.960;2022-10-22T09:39:47;14.05;;;4.30;;
52386;SDS011;38317;53.084;6.960;2022-10-22T09:42:15;8.85;;;4.00;;
52386;SDS011;38317;53.084;6.960;2022-10-22T09:44:43;10.77;;;2.97;;
52386;SDS011;38317;53.084;6.960;2022-10-22T09:50:28;5.93;;;2.60;;
52386;SDS011;38317;53.084;6.960;2022-10-22T09:52:59;12.77;;;3.33;;
52386;SDS011;38317;53.084;6.960;2022-10-22T09:55:30;20.83;;;4.75;;
52386;SDS011;38317;53.084;6.960;2022-10-22T09:57:57;15.57;;;3.45;;
52386;SDS011;38317;53.084;6.960;2022-10-22T10:00:25;15.02;;;3.88;;
52386;SDS011;38317;53.084;6.960;2022-10-22T10:02:55;9.32;;;2.30;;
52386;SDS011;38317;53.084;6.960;2022-10-22T10:05:29;10.10;;;2.65;;
52386;SDS011;38317;53.084;6.960;2022-10-22T10:07:57;6.65;;;2.53;;
52386;SDS011;38317;53.084;6.960;2022-10-22T10:11:00;24.55;;;5.05;;
52386;SDS011;38317;53.084;6.960;2022-10-22T10:13:45;9.95;;;2.72;;
52386;SDS011;38317;53.084;6.960;2022-10-22T10:27:07;6.60;;;1.95;;
52386;SDS011;38317;53.084;6.960;2022-10-22T10:30:12;8.82;;;2.25;;
52386;SDS011;38317;53.084;6.960;2022-10-22T10:35:32;6.20;;;1.80;;
52386;SDS011;38317;53.084;6.960;2022-10-22T10:48:58;5.88;;;1.95;;
52386;SDS011;38317;53.084;6.960;2022-10-22T10:57:01;4.03;;;2.00;;
52386;SDS011;38317;53.084;6.960;2022-10-22T11:05:40;10.90;;;2.97;;
52386;SDS011;38317;53.084;6.960;2022-10-22T11:08:41;6.28;;;2.38;;
52386;SDS011;38317;53.084;6.960;2022-10-22T11:11:14;6.75;;;2.60;;
52386;SDS011;38317;53.084;6.960;2022-10-22T11:13:58;7.63;;;2.50;;
52386;SDS011;38317;53.084;6.960;2022-10-22T11:19:33;8.18;;;3.00;;
52386;SDS011;38317;53.084;6.960;2022-10-22T11:22:30;6.45;;;2.47;;
52386;SDS011;38317;53.084;6.960;2022-10-22T11:25:04;5.68;;;2.35;;
52386;SDS011;38317;53.084;6.960;2022-10-22T11:27:32;15.32;;;3.42;;
52386;SDS011;38317;53.084;6.960;2022-10-22T11:30:29;48.85;;;8.13;;
52386;SDS011;38317;53.084;6.960;2022-10-22T11:33:00;19.13;;;4.47;;
52386;SDS011;38317;53.084;6.960;2022-10-22T11:35:34;18.15;;;3.92;;
52386;SDS011;38317;53.084;6.960;2022-10-22T11:38:04;16.65;;;3.05;;
52386;SDS011;38317;53.084;6.960;2022-10-22T11:40:37;14.00;;;3.13;;
52386;SDS011;38317;53.084;6.960;2022-10-22T11:48:39;9.43;;;3.45;;
52386;SDS011;38317;53.084;6.960;2022-10-22T11:51:27;11.95;;;3.45;;
52386;SDS011;38317;53.084;6.960;2022-10-22T11:54:00;16.00;;;3.83;;
52386;SDS011;38317;53.084;6.960;2022-10-22T11:56:35;22.48;;;3.90;;
52386;SDS011;38317;53.084;6.960;2022-10-22T11:59:03;40.15;;;5.15;;
52386;SDS011;38317;53.084;6.960;2022-10-22T12:01:53;12.18;;;2.40;;
52386;SDS011;38317;53.084;6.960;2022-10-22T12:04:20;7.95;;;2.55;;
52386;SDS011;38317;53.084;6.960;2022-10-22T12:06:55;5.80;;;2.22;;
52386;SDS011;38317;53.084;6.960;2022-10-22T12:09:23;7.20;;;2.30;;
52386;SDS011;38317;53.084;6.960;2022-10-22T12:11:54;6.43;;;2.30;;
52386;SDS011;38317;53.084;6.960;2022-10-22T12:17:58;6.65;;;2.00;;
52386;SDS011;38317;53.084;6.960;2022-10-22T12:20:26;7.18;;;2.20;;
52386;SDS011;38317;53.084;6.960;2022-10-22T12:22:52;8.07;;;2.70;;
52386;SDS011;38317;53.084;6.960;2022-10-22T12:25:24;5.85;;;2.80;;
52386;SDS011;38317;53.084;6.960;2022-10-22T12:27:55;7.50;;;2.60;;
52386;SDS011;38317;53.084;6.960;2022-10-22T12:30:32;5.72;;;2.00;;
52386;SDS011;38317;53.084;6.960;2022-10-22T12:33:02;6.80;;;2.35;;
52386;SDS011;38317;53.084;6.960;2022-10-22T12:35:31;6.22;;;2.83;;
52386;SDS011;38317;53.084;6.960;2022-10-22T12:38:12;5.50;;;2.60;;
52386;SDS011;38317;53.084;6.960;2022-10-22T12:40:40;6.50;;;2.60;;
52386;SDS011;38317;53.084;6.960;2022-10-22T12:43:10;5.60;;;2.13;;
52386;SDS011;38317;53.084;6.960;2022-10-22T12:45:37;5.63;;;2.22;;
52386;SDS011;38317;53.084;6.960;2022-10-22T12:48:04;5.28;;;2.53;;
52386;SDS011;38317;53.084;6.960;2022-10-22T12:50:41;6.20;;;2.55;;
52386;SDS011;38317;53.084;6.960;2022-10-22T12:53:31;5.47;;;2.50;;
52386;SDS011;38317;53.084;6.960;2022-10-22T12:56:05;5.47;;;2.25;;
52386;SDS011;38317;53.084;6.960;2022-10-22T12:58:39;7.00;;;2.38;;
52386;SDS011;38317;53.084;6.960;2022-10-22T13:01:31;5.47;;;2.35;;
52386;SDS011;38317;53.084;6.960;2022-10-22T13:06:48;4.60;;;1.90;;
52386;SDS011;38317;53.084;6.960;2022-10-22T13:11:47;8.00;;;3.17;;
52386;SDS011;38317;53.084;6.960;2022-10-22T13:17:02;5.35;;;2.75;;
52386;SDS011;38317;53.084;6.960;2022-10-22T13:27:50;5.80;;;2.10;;
52386;SDS011;38317;53.084;6.960;2022-10-22T13:30:27;5.60;;;2.05;;
52386;SDS011;38317;53.084;6.960;2022-10-22T13:33:49;11.18;;;3.05;;
52386;SDS011;38317;53.084;6.960;2022-10-22T13:35:47;5.07;;;2.22;;
52386;SDS011;38317;53.084;6.960;2022-10-22T13:38:20;8.48;;;2.40;;
52386;SDS011;38317;53.084;6.960;2022-10-22T13:40:47;8.00;;;2.35;;
52386;SDS011;38317;53.084;6.960;2022-10-22T13:43:14;6.15;;;2.50;;
52386;SDS011;38317;53.084;6.960;2022-10-22T13:45:40;7.35;;;2.17;;
52386;SDS011;38317;53.084;6.960;2022-10-22T13:48:12;5.75;;;1.90;;
52386;SDS011;38317;53.084;6.960;2022-10-22T13:50:39;4.03;;;1.50;;
52386;SDS011;38317;53.084;6.960;2022-10-22T13:53:08;3.65;;;1.58;;
52386;SDS011;38317;53.084;6.960;2022-10-22T13:55:42;2.58;;;1.48;;
52386;SDS011;38317;53.084;6.960;2022-10-22T14:00:39;7.15;;;2.00;;
52386;SDS011;38317;53.084;6.960;2022-10-22T14:03:14;5.22;;;1.77;;
52386;SDS011;38317;53.084;6.960;2022-10-22T14:05:47;4.55;;;2.00;;
52386;SDS011;38317;53.084;6.960;2022-10-22T14:08:14;4.47;;;1.58;;
52386;SDS011;38317;53.084;6.960;2022-10-22T14:10:43;6.03;;;2.50;;
52386;SDS011;38317;53.084;6.960;2022-10-22T14:13:15;6.60;;;2.50;;
52386;SDS011;38317;53.084;6.960;2022-10-22T14:15:42;6.63;;;2.15;;
52386;SDS011;38317;53.084;6.960;2022-10-22T14:18:11;6.90;;;1.90;;
52386;SDS011;38317;53.084;6.960;2022-10-22T14:20:48;6.97;;;1.88;;
52386;SDS011;38317;53.084;6.960;2022-10-22T14:23:16;8.55;;;1.70;;
52386;SDS011;38317;53.084;6.960;2022-10-22T14:25:44;5.50;;;1.25;;
52386;SDS011;38317;53.084;6.960;2022-10-22T14:28:10;4.57;;;1.30;;
52386;SDS011;38317;53.084;6.960;2022-10-22T14:30:36;3.78;;;1.00;;
52386;SDS011;38317;53.084;6.960;2022-10-22T14:33:08;2.58;;;0.90;;
52386;SDS011;38317;53.084;6.960;2022-10-22T14:35:39;5.10;;;1.08;;
52386;SDS011;38317;53.084;6.960;2022-10-22T14:38:05;5.70;;;1.10;;
52386;SDS011;38317;53.084;6.960;2022-10-22T14:40:31;4.72;;;0.82;;
52386;SDS011;38317;53.084;6.960;2022-10-22T14:42:57;5.03;;;1.13;;
52386;SDS011;38317;53.084;6.960;2022-10-22T14:45:24;2.08;;;0.60;;
52386;SDS011;38317;53.084;6.960;2022-10-22T14:47:50;4.75;;;1.00;;
52386;SDS011;38317;53.084;6.960;2022-10-22T14:50:19;3.28;;;0.60;;
52386;SDS011;38317;53.084;6.960;2022-10-22T14:52:45;3.88;;;0.73;;
52386;SDS011;38317;53.084;6.960;2022-10-22T14:55:13;4.80;;;0.90;;
52386;SDS011;38317;53.084;6.960;2022-10-22T14:57:40;4.20;;;1.30;;
52386;SDS011;38317;53.084;6.960;2022-10-22T15:00:10;2.97;;;0.70;;
52386;SDS011;38317;53.084;6.960;2022-10-22T15:02:38;3.60;;;0.80;;
52386;SDS011;38317;53.084;6.960;2022-10-22T15:05:04;3.05;;;0.70;;
52386;SDS011;38317;53.084;6.960;2022-10-22T15:07:30;6.45;;;0.88;;
52386;SDS011;38317;53.084;6.960;2022-10-22T15:09:56;3.85;;;0.70;;
52386;SDS011;38317;53.084;6.960;2022-10-22T15:12:22;1.85;;;0.45;;
52386;SDS011;38317;53.084;6.960;2022-10-22T15:14:48;4.80;;;0.80;;
52386;SDS011;38317;53.084;6.960;2022-10-22T15:17:15;3.60;;;0.98;;
52386;SDS011;38317;53.084;6.960;2022-10-22T15:19:41;5.10;;;1.00;;
52386;SDS011;38317;53.084;6.960;2022-10-22T15:22:08;4.25;;;0.68;;
52386;SDS011;38317;53.084;6.960;2022-10-22T15:24:35;4.80;;;0.98;;
52386;SDS011;38317;53.084;6.960;2022-10-22T15:27:12;3.05;;;0.40;;
52386;SDS011;38317;53.084;6.960;2022-10-22T15:29:39;3.65;;;0.60;;
52386;SDS011;38317;53.084;6.960;2022-10-22T15:32:06;5.78;;;0.82;;
52386;SDS011;38317;53.084;6.960;2022-10-22T15:34:34;4.90;;;0.63;;
52386;SDS011;38317;53.084;6.960;2022-10-22T15:37:03;3.10;;;0.60;;
52386;SDS011;38317;53.084;6.960;2022-10-22T15:39:31;3.35;;;0.47;;
52386;SDS011;38317;53.084;6.960;2022-10-22T15:41:57;2.65;;;0.60;;
52386;SDS011;38317;53.084;6.960;2022-10-22T15:44:27;4.50;;;0.70;;
52386;SDS011;38317;53.084;6.960;2022-10-22T15:46:54;5.80;;;0.70;;
52386;SDS011;38317;53.084;6.960;2022-10-22T15:49:21;4.32;;;0.50;;
52386;SDS011;38317;53.084;6.960;2022-10-22T15:51:48;5.32;;;1.40;;
52386;SDS011;38317;53.084;6.960;2022-10-22T15:54:15;8.38;;;2.10;;
52386;SDS011;38317;53.084;6.960;2022-10-22T15:56:43;10.55;;;3.70;;
52386;SDS011;38317;53.084;6.960;2022-10-22T15:59:09;10.65;;;3.17;;
52386;SDS011;38317;53.084;6.960;2022-10-22T16:01:36;9.90;;;2.00;;
52386;SDS011;38317;53.084;6.960;2022-10-22T16:04:03;8.40;;;2.15;;
52386;SDS011;38317;53.084;6.960;2022-10-22T16:06:32;4.35;;;1.05;;
52386;SDS011;38317;53.084;6.960;2022-10-22T16:09:00;5.78;;;1.08;;
52386;SDS011;38317;53.084;6.960;2022-10-22T16:11:28;7.13;;;1.15;;
52386;SDS011;38317;53.084;6.960;2022-10-22T16:13:54;5.32;;;0.98;;
52386;SDS011;38317;53.084;6.960;2022-10-22T16:16:22;6.47;;;0.93;;
52386;SDS011;38317;53.084;6.960;2022-10-22T16:18:49;5.15;;;0.80;;
52386;SDS011;38317;53.084;6.960;2022-10-22T16:21:16;4.72;;;1.23;;
52386;SDS011;38317;53.084;6.960;2022-10-22T16:23:42;6.15;;;0.80;;
52386;SDS011;38317;53.084;6.960;2022-10-22T16:26:09;3.50;;;0.50;;
52386;SDS011;38317;53.084;6.960;2022-10-22T16:28:35;5.18;;;1.25;;
52386;SDS011;38317;53.084;6.960;2022-10-22T16:31:04;4.07;;;0.70;;
52386;SDS011;38317;53.084;6.960;2022-10-22T16:33:33;5.28;;;1.00;;
52386;SDS011;38317;53.084;6.960;2022-10-22T16:36:00;2.95;;;0.93;;
52386;SDS011;38317;53.084;6.960;2022-10-22T16:38:26;4.90;;;0.80;;
52386;SDS011;38317;53.084;6.960;2022-10-22T16:40:52;4.07;;;0.70;;
52386;SDS011;38317;53.084;6.960;2022-10-22T16:43:18;3.92;;;0.80;;
52386;SDS011;38317;53.084;6.960;2022-10-22T16:45:50;5.57;;;1.15;;
52386;SDS011;38317;53.084;6.960;2022-10-22T16:48:16;5.50;;;1.33;;
52386;SDS011;38317;53.084;6.960;2022-10-22T16:50:42;7.38;;;1.05;;
52386;SDS011;38317;53.084;6.960;2022-10-22T16:53:09;4.28;;;0.70;;
52386;SDS011;38317;53.084;6.960;2022-10-22T16:55:35;5.97;;;1.00;;
52386;SDS011;38317;53.084;6.960;2022-10-22T16:58:03;5.07;;;0.90;;
52386;SDS011;38317;53.084;6.960;2022-10-22T17:00:29;4.53;;;0.63;;
52386;SDS011;38317;53.084;6.960;2022-10-22T17:02:56;5.32;;;0.80;;
52386;SDS011;38317;53.084;6.960;2022-10-22T17:05:22;7.80;;;1.63;;
52386;SDS011;38317;53.084;6.960;2022-10-22T17:07:48;4.28;;;1.10;;